createdAt,value
2018-03-30T00:00:41.680Z,80.22
2018-03-30T00:01:41.624Z,80.03
2018-03-30T00:03:35.208Z,79.74
2018-03-30T00:04:35.013Z,79.74
2018-03-30T00:06:28.301Z,79.17
2018-03-30T00:07:28.276Z,79.94
2018-03-30T00:09:21.594Z,79.27
2018-03-30T00:10:21.537Z,79.46
2018-03-30T00:12:14.995Z,79.08
2018-03-30T00:13:14.799Z,79.17
2018-03-30T00:15:08.093Z,78.89
2018-03-30T00:16:08.085Z,79.17
2018-03-30T00:18:01.397Z,78.89
2018-03-30T00:19:01.322Z,78.61
2018-03-30T00:20:54.720Z,78.23
2018-03-30T00:21:54.664Z,78.51
2018-03-30T00:23:48.987Z,78.89
2018-03-30T00:24:48.919Z,78.70
2018-03-30T00:26:42.212Z,78.27
2018-03-30T00:27:42.172Z,78.36
2018-03-30T00:29:35.649Z,78.27
2018-03-30T00:30:35.488Z,77.75
2018-03-30T00:32:28.787Z,77.56
2018-03-30T00:33:28.791Z,77.75
2018-03-30T00:35:22.074Z,78.51
2018-03-30T00:36:22.015Z,77.66
2018-03-30T00:38:15.603Z,78.03
2018-03-30T00:39:15.379Z,77.98
2018-03-30T00:41:08.693Z,77.98
2018-03-30T00:42:08.667Z,78.08
2018-03-30T00:44:02.007Z,78.36
2018-03-30T00:45:01.931Z,77.98
2018-03-30T00:46:55.349Z,78.55
2018-03-30T00:47:55.224Z,77.51
2018-03-30T00:49:48.521Z,78.36
2018-03-30T00:50:48.484Z,78.64
2018-03-30T00:52:41.789Z,78.45
2018-03-30T00:53:41.747Z,78.36
2018-03-30T00:55:35.235Z,78.36
2018-03-30T00:56:35.069Z,78.45
2018-03-30T00:58:28.383Z,78.55
2018-03-30T00:59:28.335Z,78.27
2018-03-30T01:01:21.637Z,77.98
2018-03-30T01:02:21.588Z,78.17
2018-03-30T01:04:15.040Z,78.27
2018-03-30T01:05:14.862Z,78.08
2018-03-30T01:07:08.171Z,77.31
2018-03-30T01:08:08.170Z,77.70
2018-03-30T01:10:01.445Z,77.41
2018-03-30T01:11:01.412Z,77.31
2018-03-30T01:12:54.898Z,77.41
2018-03-30T01:13:54.699Z,76.75
2018-03-30T01:15:48.000Z,77.41
2018-03-30T01:16:47.952Z,77.60
2018-03-30T01:18:41.256Z,77.51
2018-03-30T01:19:41.218Z,76.75
2018-03-30T01:21:34.693Z,77.03
2018-03-30T01:22:34.501Z,76.84
2018-03-30T01:24:27.779Z,76.75
2018-03-30T01:25:27.743Z,76.27
2018-03-30T01:27:21.055Z,75.99
2018-03-30T01:28:21.006Z,76.65
2018-03-30T01:30:15.461Z,76.37
2018-03-30T01:31:15.325Z,76.37
2018-03-30T01:33:08.626Z,75.89
2018-03-30T01:34:08.586Z,75.99
2018-03-30T01:36:01.912Z,76.08
2018-03-30T01:37:01.858Z,75.99
2018-03-30T01:38:55.205Z,75.99
2018-03-30T01:39:55.148Z,76.27
2018-03-30T01:41:48.143Z,76.08
2018-03-30T01:42:48.089Z,76.27
2018-03-30T01:44:40.895Z,76.46
2018-03-30T01:45:40.880Z,76.46
2018-03-30T01:47:34.220Z,76.27
2018-03-30T01:48:34.122Z,76.18
2018-03-30T01:50:28.705Z,76.08
2018-03-30T01:51:28.544Z,76.27
2018-03-30T01:53:21.846Z,76.08
2018-03-30T01:54:29.439Z,75.99
2018-03-30T01:56:15.121Z,76.46
2018-03-30T01:57:15.064Z,76.56
2018-03-30T01:59:08.412Z,76.08
2018-03-30T02:00:08.376Z,76.18
2018-03-30T02:02:01.737Z,76.18
2018-03-30T02:03:01.765Z,76.08
2018-03-30T02:04:54.862Z,76.27
2018-03-30T02:05:54.796Z,76.37
2018-03-30T02:07:48.383Z,76.18
2018-03-30T02:08:48.162Z,76.08
2018-03-30T02:10:41.474Z,76.65
2018-03-30T02:11:41.434Z,76.18
2018-03-30T02:13:34.767Z,76.18
2018-03-30T02:14:34.725Z,75.99
2018-03-30T02:16:28.039Z,76.18
2018-03-30T02:17:27.999Z,76.46
2018-03-30T02:19:22.302Z,76.65
2018-03-30T02:20:22.261Z,76.75
2018-03-30T02:22:15.574Z,76.46
2018-03-30T02:23:15.526Z,76.18
2018-03-30T02:25:08.855Z,76.84
2018-03-30T02:26:08.818Z,76.84
2018-03-30T02:28:02.129Z,76.84
2018-03-30T02:29:02.151Z,76.84
2018-03-30T02:30:55.375Z,76.84
2018-03-30T02:31:55.333Z,76.93
2018-03-30T02:33:48.680Z,76.56
2018-03-30T02:34:48.629Z,76.84
2018-03-30T02:36:41.548Z,77.70
2018-03-30T02:37:41.390Z,77.12
2018-03-30T02:39:35.712Z,77.03
2018-03-30T02:40:35.668Z,77.41
2018-03-30T02:42:29.005Z,77.41
2018-03-30T02:43:28.926Z,77.41
2018-03-30T02:45:22.261Z,77.22
2018-03-30T02:46:22.201Z,77.70
2018-03-30T02:48:15.547Z,77.31
2018-03-30T02:49:15.477Z,77.12
2018-03-30T02:51:08.839Z,77.70
2018-03-30T02:52:08.748Z,77.41
2018-03-30T02:54:02.202Z,77.70
2018-03-30T02:55:02.001Z,77.89
2018-03-30T02:56:55.311Z,77.89
2018-03-30T02:57:55.261Z,77.60
2018-03-30T02:59:49.621Z,77.70
2018-03-30T03:00:49.548Z,77.70
2018-03-30T03:02:43.085Z,78.27
2018-03-30T03:03:43.029Z,77.70
2018-03-30T03:05:36.351Z,78.27
2018-03-30T03:06:36.285Z,77.31
2018-03-30T03:08:29.601Z,77.89
2018-03-30T03:09:29.670Z,78.27
2018-03-30T03:11:22.852Z,78.36
2018-03-30T03:12:22.810Z,77.70
2018-03-30T03:14:16.221Z,77.98
2018-03-30T03:15:16.183Z,78.55
2018-03-30T03:17:09.464Z,78.17
2018-03-30T03:18:09.476Z,78.83
2018-03-30T03:20:02.750Z,78.36
2018-03-30T03:21:02.692Z,78.55
2018-03-30T03:22:55.997Z,78.36
2018-03-30T03:23:55.959Z,77.70
2018-03-30T03:25:49.287Z,78.27
2018-03-30T03:26:49.292Z,78.27
2018-03-30T03:28:42.599Z,77.89
2018-03-30T03:29:42.501Z,78.74
2018-03-30T03:31:36.798Z,79.22
2018-03-30T03:32:36.752Z,78.27
2018-03-30T03:34:30.093Z,78.55
2018-03-30T03:35:30.032Z,78.64
2018-03-30T03:37:23.361Z,78.45
2018-03-30T03:38:23.292Z,79.03
2018-03-30T03:40:16.688Z,78.27
2018-03-30T03:41:16.641Z,78.36
2018-03-30T03:43:09.952Z,78.45
2018-03-30T03:44:09.891Z,78.55
2018-03-30T03:46:03.335Z,78.36
2018-03-30T03:47:03.170Z,78.64
2018-03-30T03:48:56.559Z,78.45
2018-03-30T03:49:56.487Z,78.64
2018-03-30T03:51:49.809Z,79.31
2018-03-30T03:52:49.752Z,79.12
2018-03-30T03:54:43.046Z,78.36
2018-03-30T03:55:43.006Z,78.45
2018-03-30T03:57:36.466Z,78.36
2018-03-30T03:58:36.346Z,78.45
2018-03-30T04:00:29.676Z,78.55
2018-03-30T04:01:29.601Z,78.36
2018-03-30T04:03:22.905Z,78.36
2018-03-30T04:04:22.853Z,78.45
2018-03-30T04:06:16.357Z,78.74
2018-03-30T04:07:16.148Z,78.55
2018-03-30T04:09:09.458Z,78.64
2018-03-30T04:10:09.418Z,78.74
2018-03-30T04:12:02.741Z,78.55
2018-03-30T04:13:02.679Z,78.45
2018-03-30T04:14:56.188Z,78.27
2018-03-30T04:15:56.011Z,78.36
2018-03-30T04:17:49.328Z,78.45
2018-03-30T04:18:49.289Z,78.36
2018-03-30T04:20:42.570Z,78.08
2018-03-30T04:21:42.546Z,78.17
2018-03-30T04:23:36.007Z,78.64
2018-03-30T04:24:35.799Z,78.36
2018-03-30T04:26:28.801Z,77.98
2018-03-30T04:27:28.728Z,77.70
2018-03-30T04:29:21.697Z,77.79
2018-03-30T04:30:21.655Z,77.60
2018-03-30T04:32:14.978Z,78.55
2018-03-30T04:33:14.926Z,78.93
2018-03-30T04:35:08.226Z,77.70
2018-03-30T04:36:08.182Z,77.79
2018-03-30T04:38:01.517Z,78.08
2018-03-30T04:39:01.464Z,77.89
2018-03-30T04:40:54.766Z,78.27
2018-03-30T04:41:54.718Z,78.27
2018-03-30T04:43:48.147Z,78.08
2018-03-30T04:44:48.073Z,78.36
2018-03-30T04:46:41.391Z,77.79
2018-03-30T04:47:41.349Z,78.08
2018-03-30T04:49:34.683Z,77.98
2018-03-30T04:50:34.613Z,78.17
2018-03-30T04:52:28.180Z,78.08
2018-03-30T04:53:28.003Z,78.55
2018-03-30T04:55:21.313Z,78.17
2018-03-30T04:56:21.289Z,78.17
2018-03-30T04:58:14.574Z,78.55
2018-03-30T04:59:14.532Z,78.08
2018-03-30T05:01:07.898Z,78.45
2018-03-30T05:02:07.814Z,78.45
2018-03-30T05:04:01.148Z,78.08
2018-03-30T05:05:01.079Z,77.70
2018-03-30T05:06:54.384Z,77.89
2018-03-30T05:07:54.396Z,77.98
2018-03-30T05:09:47.844Z,78.64
2018-03-30T05:10:47.624Z,78.55
2018-03-30T05:12:40.954Z,78.45
2018-03-30T05:13:40.906Z,77.89
2018-03-30T05:15:34.192Z,77.89
2018-03-30T05:16:34.194Z,77.70
2018-03-30T05:18:27.653Z,77.98
2018-03-30T05:19:27.439Z,77.98
2018-03-30T05:21:20.748Z,77.89
2018-03-30T05:22:20.705Z,77.70
2018-03-30T05:24:14.040Z,77.70
2018-03-30T05:25:14.015Z,78.36
2018-03-30T05:27:07.473Z,78.64
2018-03-30T05:28:07.284Z,77.70
2018-03-30T05:30:00.617Z,77.89
2018-03-30T05:31:00.563Z,77.70
2018-03-30T05:32:53.878Z,78.45
2018-03-30T05:33:53.847Z,78.74
2018-03-30T05:35:47.345Z,78.45
2018-03-30T05:36:47.155Z,78.64
2018-03-30T05:38:40.448Z,78.45
2018-03-30T05:39:40.412Z,78.17
2018-03-30T05:41:33.718Z,78.55
2018-03-30T05:42:33.678Z,78.08
2018-03-30T05:44:27.147Z,78.45
2018-03-30T05:45:26.937Z,79.03
2018-03-30T05:47:20.267Z,78.36
2018-03-30T05:48:20.215Z,78.45
2018-03-30T05:50:13.534Z,78.74
2018-03-30T05:51:13.479Z,78.36
2018-03-30T05:53:06.777Z,78.55
2018-03-30T05:54:06.741Z,78.45
2018-03-30T05:56:00.093Z,79.22
2018-03-30T05:56:59.999Z,78.55
2018-03-30T05:58:53.301Z,79.22
2018-03-30T05:59:53.265Z,78.27
2018-03-30T06:01:46.103Z,79.69
2018-03-30T06:02:46.041Z,79.31
2018-03-30T06:04:39.475Z,78.83
2018-03-30T06:05:39.301Z,79.12
2018-03-30T06:07:32.617Z,78.36
2018-03-30T06:08:32.588Z,78.64
2018-03-30T06:10:25.879Z,79.31
2018-03-30T06:11:25.838Z,79.31
2018-03-30T06:13:19.298Z,78.55
2018-03-30T06:14:19.093Z,79.31
2018-03-30T06:16:12.428Z,78.36
2018-03-30T06:17:12.382Z,78.74
2018-03-30T06:19:05.763Z,78.45
2018-03-30T06:20:05.638Z,78.55
2018-03-30T06:21:59.002Z,78.45
2018-03-30T06:22:58.924Z,78.45
2018-03-30T06:24:52.244Z,78.45
2018-03-30T06:25:52.203Z,78.45
2018-03-30T06:27:45.528Z,78.45
2018-03-30T06:28:45.484Z,78.08
2018-03-30T06:30:38.963Z,77.92
2018-03-30T06:31:38.772Z,78.50
2018-03-30T06:33:32.088Z,77.83
2018-03-30T06:34:32.049Z,78.11
2018-03-30T06:36:25.359Z,78.11
2018-03-30T06:37:25.309Z,78.21
2018-03-30T06:39:18.745Z,77.83
2018-03-30T06:40:18.579Z,77.92
2018-03-30T06:42:11.896Z,77.73
2018-03-30T06:43:11.840Z,77.36
2018-03-30T06:45:05.141Z,77.73
2018-03-30T06:46:05.112Z,77.55
2018-03-30T06:47:58.604Z,77.26
2018-03-30T06:48:58.400Z,77.64
2018-03-30T06:50:52.711Z,77.36
2018-03-30T06:51:52.670Z,77.36
2018-03-30T06:53:46.035Z,77.36
2018-03-30T06:54:45.972Z,77.07
2018-03-30T06:56:39.316Z,77.45
2018-03-30T06:57:39.281Z,77.26
2018-03-30T06:59:32.562Z,77.11
2018-03-30T07:00:32.492Z,76.73
2018-03-30T07:02:25.782Z,77.11
2018-03-30T07:03:25.756Z,76.25
2018-03-30T07:05:19.254Z,76.06
2018-03-30T07:06:19.081Z,76.25
2018-03-30T07:08:12.396Z,76.25
2018-03-30T07:09:12.384Z,75.78
2018-03-30T07:11:05.676Z,75.40
2018-03-30T07:12:05.606Z,75.68
2018-03-30T07:13:58.992Z,75.68
2018-03-30T07:14:58.854Z,75.49
2018-03-30T07:16:52.157Z,74.73
2018-03-30T07:17:52.171Z,74.63
2018-03-30T07:19:45.439Z,74.82
2018-03-30T07:20:45.382Z,74.63
2018-03-30T07:22:38.681Z,74.92
2018-03-30T07:23:38.657Z,74.58
2018-03-30T07:25:31.986Z,74.10
2018-03-30T07:26:31.920Z,74.39
2018-03-30T07:28:25.231Z,74.39
2018-03-30T07:29:25.200Z,74.87
2018-03-30T07:31:18.782Z,74.39
2018-03-30T07:32:18.501Z,73.91
2018-03-30T07:34:11.819Z,74.58
2018-03-30T07:35:11.772Z,74.87
2018-03-30T07:37:05.103Z,73.82
2018-03-30T07:38:05.048Z,73.82
2018-03-30T07:39:58.361Z,73.66
2018-03-30T07:40:58.314Z,73.57
2018-03-30T07:42:51.611Z,72.96
2018-03-30T07:43:51.595Z,73.95
2018-03-30T07:45:44.897Z,73.19
2018-03-30T07:46:44.845Z,73.19
2018-03-30T07:48:38.467Z,73.19
2018-03-30T07:49:38.178Z,72.62
2018-03-30T07:51:31.191Z,73.00
2018-03-30T07:52:31.136Z,73.00
2018-03-30T07:54:25.456Z,73.19
2018-03-30T07:55:25.425Z,73.00
2018-03-30T07:57:18.741Z,73.66
2018-03-30T07:58:18.703Z,73.66
2018-03-30T08:00:12.023Z,73.47
2018-03-30T08:01:11.971Z,73.10
2018-03-30T08:03:05.355Z,73.57
2018-03-30T08:04:05.267Z,73.47
2018-03-30T08:05:58.566Z,73.66
2018-03-30T08:06:58.528Z,73.76
2018-03-30T08:08:51.820Z,73.47
2018-03-30T08:09:51.772Z,73.66
2018-03-30T08:11:45.254Z,73.57
2018-03-30T08:12:45.086Z,73.95
2018-03-30T08:14:38.381Z,73.57
2018-03-30T08:15:38.366Z,73.38
2018-03-30T08:17:31.677Z,73.85
2018-03-30T08:18:31.623Z,73.28
2018-03-30T08:20:24.620Z,73.19
2018-03-30T08:21:24.558Z,72.62
2018-03-30T08:23:17.792Z,73.00
2018-03-30T08:24:17.692Z,72.90
2018-03-30T08:26:10.553Z,71.61
2018-03-30T08:27:10.476Z,71.61
2018-03-30T08:29:03.315Z,70.37
2018-03-30T08:30:03.244Z,71.03
2018-03-30T08:31:56.631Z,70.18
2018-03-30T08:32:56.429Z,69.23
2018-03-30T08:34:49.390Z,69.51
2018-03-30T08:35:49.351Z,69.32
2018-03-30T08:37:42.830Z,68.69
2018-03-30T08:38:42.643Z,68.88
2018-03-30T08:40:35.638Z,68.50
2018-03-30T08:41:35.602Z,68.50
2018-03-30T08:43:29.127Z,67.74
2018-03-30T08:44:28.880Z,67.45
2018-03-30T08:46:21.689Z,67.93
2018-03-30T08:47:21.644Z,67.00
2018-03-30T08:49:15.223Z,67.29
2018-03-30T08:50:15.039Z,67.29
2018-03-30T08:52:08.013Z,66.91
2018-03-30T08:53:07.972Z,66.53
2018-03-30T08:55:01.472Z,65.29
2018-03-30T08:56:01.278Z,66.05
2018-03-30T08:57:54.341Z,64.91
2018-03-30T08:58:54.277Z,65.04
2018-03-30T09:00:47.768Z,64.94
2018-03-30T09:01:47.576Z,64.75
2018-03-30T09:03:40.920Z,64.37
2018-03-30T09:04:40.857Z,63.51
2018-03-30T09:06:34.181Z,63.60
2018-03-30T09:07:34.759Z,63.42
2018-03-30T09:09:27.603Z,62.30
2018-03-30T09:10:27.404Z,62.59
2018-03-30T09:12:20.729Z,61.92
2018-03-30T09:13:20.697Z,60.87
2018-03-30T09:15:13.619Z,60.11
2018-03-30T09:16:13.571Z,59.53
2018-03-30T09:18:06.884Z,58.77
2018-03-30T09:19:06.844Z,58.87
2018-03-30T09:21:01.167Z,59.66
2018-03-30T09:22:01.121Z,58.99
2018-03-30T09:23:54.514Z,59.47
2018-03-30T09:24:54.469Z,59.09
2018-03-30T09:26:47.794Z,58.04
2018-03-30T09:27:47.743Z,57.75
2018-03-30T09:29:41.069Z,58.33
2018-03-30T09:30:41.029Z,58.36
2018-03-30T09:32:34.519Z,57.11
2018-03-30T09:33:34.308Z,57.21
2018-03-30T09:35:27.163Z,57.68
2018-03-30T09:36:27.098Z,57.78
2018-03-30T09:38:20.452Z,58.64
2018-03-30T09:39:20.428Z,58.54
2018-03-30T09:41:13.756Z,56.85
2018-03-30T09:42:13.693Z,56.95
2018-03-30T09:44:07.047Z,55.71
2018-03-30T09:45:06.972Z,55.52
2018-03-30T09:47:00.489Z,54.94
2018-03-30T09:48:00.287Z,55.26
2018-03-30T09:49:53.599Z,55.16
2018-03-30T09:50:53.557Z,54.97
2018-03-30T09:52:46.899Z,54.97
2018-03-30T09:53:46.838Z,53.92
2018-03-30T09:55:39.680Z,54.43
2018-03-30T09:56:39.637Z,53.66
2018-03-30T09:58:32.984Z,52.61
2018-03-30T09:59:32.939Z,52.83
2018-03-30T10:01:26.425Z,49.69
2018-03-30T10:02:26.330Z,49.43
2018-03-30T10:04:19.660Z,48.52
2018-03-30T10:05:19.633Z,47.66
2018-03-30T10:07:12.991Z,45.57
2018-03-30T10:08:12.919Z,44.51
2018-03-30T10:10:06.428Z,42.52
2018-03-30T10:11:06.224Z,42.93
2018-03-30T10:12:59.603Z,41.53
2018-03-30T10:13:59.549Z,40.16
2018-03-30T10:15:52.868Z,39.53
2018-03-30T10:16:52.877Z,39.24
2018-03-30T10:18:46.235Z,39.37
2018-03-30T10:19:46.155Z,37.93
2018-03-30T10:21:40.812Z,36.99
2018-03-30T10:22:40.576Z,35.36
2018-03-30T10:24:34.923Z,35.58
2018-03-30T10:25:34.903Z,35.10
2018-03-30T10:27:29.255Z,35.59
2018-03-30T10:28:29.198Z,34.34
2018-03-30T10:30:22.571Z,33.78
2018-03-30T10:31:22.506Z,32.34
2018-03-30T10:33:15.872Z,32.64
2018-03-30T10:34:15.808Z,32.71
2018-03-30T10:36:09.165Z,31.57
2018-03-30T10:37:09.184Z,32.67
2018-03-30T10:39:02.500Z,30.44
2018-03-30T10:40:02.439Z,30.35
2018-03-30T10:41:55.824Z,29.78
2018-03-30T10:42:55.794Z,30.38
2018-03-30T10:44:49.175Z,29.59
2018-03-30T10:45:49.108Z,28.91
2018-03-30T10:47:42.476Z,28.52
2018-03-30T10:48:42.434Z,29.38
2018-03-30T10:50:35.811Z,29.88
2018-03-30T10:51:35.738Z,29.70
2018-03-30T10:53:29.116Z,28.36
2018-03-30T10:54:29.050Z,29.05
2018-03-30T10:56:22.389Z,27.09
2018-03-30T10:57:22.426Z,28.28
2018-03-30T10:59:15.779Z,26.25
2018-03-30T11:00:15.719Z,25.36
2018-03-30T11:02:09.103Z,27.64
2018-03-30T11:03:10.020Z,27.26
2018-03-30T11:05:02.438Z,27.93
2018-03-30T11:06:02.414Z,27.25
2018-03-30T11:07:55.697Z,27.37
2018-03-30T11:08:55.675Z,27.37
2018-03-30T11:10:49.098Z,27.19
2018-03-30T11:11:49.043Z,27.09
2018-03-30T11:13:42.404Z,25.70
2018-03-30T11:14:42.331Z,26.88
2018-03-30T11:16:35.679Z,26.62
2018-03-30T11:17:35.663Z,25.36
2018-03-30T11:19:29.001Z,25.94
2018-03-30T11:20:28.985Z,25.94
2018-03-30T11:22:22.354Z,25.94
2018-03-30T11:23:22.336Z,25.36
2018-03-30T11:25:15.716Z,25.37
2018-03-30T11:26:15.639Z,25.56
2018-03-30T11:28:08.995Z,24.19
2018-03-30T11:29:08.994Z,24.40
2018-03-30T11:31:02.415Z,24.28
2018-03-30T11:32:02.299Z,25.07
2018-03-30T11:33:55.621Z,25.52
2018-03-30T11:34:55.646Z,25.62
2018-03-30T11:36:48.952Z,24.27
2018-03-30T11:37:48.925Z,24.35
2018-03-30T11:39:42.255Z,24.95
2018-03-30T11:40:42.209Z,24.15
2018-03-30T11:42:35.221Z,24.65
2018-03-30T11:43:35.177Z,23.21
2018-03-30T11:45:28.535Z,24.28
2018-03-30T11:46:28.504Z,23.60
2018-03-30T11:48:21.875Z,23.41
2018-03-30T11:49:21.850Z,23.19
2018-03-30T11:51:15.201Z,24.65
2018-03-30T11:52:15.152Z,24.63
2018-03-30T11:54:08.506Z,24.82
2018-03-30T11:55:08.471Z,25.89
2018-03-30T11:57:01.490Z,25.87
2018-03-30T11:58:01.425Z,26.07
2018-03-30T11:59:54.544Z,27.00
2018-03-30T12:00:54.519Z,27.96
2018-03-30T12:02:47.900Z,29.20
2018-03-30T12:03:47.879Z,29.57
2018-03-30T12:05:41.193Z,30.22
2018-03-30T12:06:41.175Z,31.27
2018-03-30T12:08:34.488Z,31.85
2018-03-30T12:09:34.440Z,31.85
2018-03-30T12:11:27.871Z,32.70
2018-03-30T12:12:27.769Z,33.10
2018-03-30T12:14:21.093Z,32.70
2018-03-30T12:15:21.080Z,33.75
2018-03-30T12:17:13.986Z,35.87
2018-03-30T12:18:13.916Z,36.54
2018-03-30T12:20:07.212Z,36.83
2018-03-30T12:21:07.176Z,37.70
2018-03-30T12:23:00.532Z,37.32
2018-03-30T12:24:00.464Z,37.60
2018-03-30T12:25:54.029Z,35.97
2018-03-30T12:26:53.873Z,36.53
2018-03-30T12:28:47.187Z,37.27
2018-03-30T12:29:47.134Z,38.32
2018-03-30T12:31:40.462Z,40.23
2018-03-30T12:32:40.451Z,40.33
2018-03-30T12:34:33.845Z,39.78
2018-03-30T12:35:33.736Z,39.49
2018-03-30T12:37:27.062Z,38.89
2018-03-30T12:38:27.028Z,39.47
2018-03-30T12:40:20.372Z,39.01
2018-03-30T12:41:20.428Z,38.04
2018-03-30T12:43:13.631Z,38.60
2018-03-30T12:44:13.460Z,38.78
2018-03-30T12:46:06.332Z,39.28
2018-03-30T12:47:06.262Z,38.99
2018-03-30T12:48:59.262Z,39.66
2018-03-30T12:49:59.322Z,40.05
2018-03-30T12:51:53.562Z,38.51
2018-03-30T12:52:53.499Z,38.53
2018-03-30T12:54:46.879Z,38.68
2018-03-30T12:55:46.865Z,39.47
2018-03-30T12:57:40.211Z,37.64
2018-03-30T12:58:40.175Z,37.84
2018-03-30T13:00:33.480Z,37.82
2018-03-30T13:01:33.452Z,37.15
2018-03-30T13:03:26.327Z,38.87
2018-03-30T13:04:26.252Z,38.85
2018-03-30T13:06:19.566Z,38.59
2018-03-30T13:07:19.527Z,38.59
2018-03-30T13:09:12.989Z,39.73
2018-03-30T13:10:12.916Z,39.45
2018-03-30T13:12:06.258Z,39.72
2018-03-30T13:13:06.218Z,39.53
2018-03-30T13:14:59.581Z,40.29
2018-03-30T13:15:59.518Z,40.39
2018-03-30T13:17:52.850Z,40.20
2018-03-30T13:18:52.825Z,40.29
2018-03-30T13:20:46.175Z,39.91
2018-03-30T13:21:46.113Z,39.91
2018-03-30T13:23:40.427Z,39.91
2018-03-30T13:24:40.391Z,40.29
2018-03-30T13:26:33.452Z,39.73
2018-03-30T13:27:33.391Z,40.02
2018-03-30T13:29:26.725Z,39.64
2018-03-30T13:30:26.670Z,39.81
2018-03-30T13:32:20.073Z,39.91
2018-03-30T13:33:20.027Z,40.29
2018-03-30T13:35:12.835Z,40.00
2018-03-30T13:36:12.805Z,40.20
2018-03-30T13:38:06.224Z,41.42
2018-03-30T13:39:06.176Z,41.61
2018-03-30T13:40:59.503Z,42.17
2018-03-30T13:41:59.454Z,42.07
2018-03-30T13:43:52.769Z,41.40
2018-03-30T13:44:52.768Z,42.46
2018-03-30T13:46:46.143Z,41.97
2018-03-30T13:47:46.022Z,42.46
2018-03-30T13:49:42.627Z,41.60
2018-03-30T13:50:40.469Z,41.21
2018-03-30T13:52:33.307Z,41.40
2018-03-30T13:53:33.256Z,41.42
2018-03-30T13:55:26.654Z,40.66
2018-03-30T13:56:26.606Z,40.75
2018-03-30T13:58:20.934Z,40.08
2018-03-30T13:59:20.908Z,40.47
2018-03-30T14:01:14.283Z,40.37
2018-03-30T14:02:14.201Z,39.43
2018-03-30T14:04:07.699Z,39.62
2018-03-30T14:05:07.527Z,38.85
2018-03-30T14:07:00.537Z,38.56
2018-03-30T14:08:00.492Z,39.04
2018-03-30T14:09:53.934Z,39.54
2018-03-30T14:10:53.794Z,39.83
2018-03-30T14:12:47.142Z,39.72
2018-03-30T14:13:47.098Z,39.43
2018-03-30T14:15:40.018Z,38.56
2018-03-30T14:16:39.915Z,38.85
2018-03-30T14:18:33.280Z,39.60
2018-03-30T14:19:33.207Z,39.50
2018-03-30T14:21:26.038Z,39.50
2018-03-30T14:22:25.991Z,39.31
2018-03-30T14:24:19.003Z,39.20
2018-03-30T14:25:18.855Z,40.06
2018-03-30T14:27:13.165Z,39.89
2018-03-30T14:28:13.123Z,39.58
2018-03-30T14:30:06.443Z,39.29
2018-03-30T14:31:06.431Z,39.68
2018-03-30T14:33:00.980Z,39.87
2018-03-30T14:34:00.928Z,40.06
2018-03-30T14:35:54.462Z,40.04
2018-03-30T14:36:54.305Z,40.25
2018-03-30T14:38:47.150Z,40.42
2018-03-30T14:39:47.083Z,41.19
2018-03-30T14:41:40.916Z,40.14
2018-03-30T14:42:40.883Z,40.61
2018-03-30T14:44:33.897Z,40.61
2018-03-30T14:45:33.827Z,41.38
2018-03-30T14:47:27.140Z,41.07
2018-03-30T14:48:27.139Z,41.36
2018-03-30T14:50:20.487Z,41.36
2018-03-30T14:51:20.432Z,41.65
2018-03-30T14:53:13.798Z,41.44
2018-03-30T14:54:13.735Z,42.58
2018-03-30T14:56:06.620Z,42.20
2018-03-30T14:57:06.551Z,42.32
2018-03-30T14:58:59.887Z,42.58
2018-03-30T14:59:59.817Z,43.26
2018-03-30T15:01:53.220Z,43.06
2018-03-30T15:02:53.174Z,43.06
2018-03-30T15:04:46.554Z,43.44
2018-03-30T15:05:46.469Z,43.44
2018-03-30T15:07:39.449Z,44.02
2018-03-30T15:08:39.426Z,43.54
2018-03-30T15:10:32.797Z,43.16
2018-03-30T15:11:32.715Z,43.54
2018-03-30T15:13:28.271Z,42.87
2018-03-30T15:14:28.125Z,42.58
2018-03-30T15:16:22.424Z,42.76
2018-03-30T15:17:22.376Z,42.56
2018-03-30T15:19:15.685Z,42.47
2018-03-30T15:20:15.659Z,42.56
2018-03-30T15:22:08.476Z,42.76
2018-03-30T15:23:08.493Z,42.56
2018-03-30T15:25:01.785Z,43.04
2018-03-30T15:26:01.735Z,43.33
2018-03-30T15:27:55.065Z,43.43
2018-03-30T15:28:55.038Z,43.33
2018-03-30T15:30:49.384Z,43.04
2018-03-30T15:31:49.398Z,43.43
2018-03-30T15:33:42.520Z,43.90
2018-03-30T15:34:42.455Z,43.02
2018-03-30T15:36:35.959Z,43.59
2018-03-30T15:37:35.972Z,44.45
2018-03-30T15:39:29.248Z,44.74
2018-03-30T15:40:29.223Z,44.74
2018-03-30T15:42:22.440Z,44.36
2018-03-30T15:43:22.359Z,44.84
2018-03-30T15:45:15.256Z,44.26
2018-03-30T15:46:15.157Z,44.93
2018-03-30T15:48:09.151Z,44.26
2018-03-30T15:49:09.106Z,44.26
2018-03-30T15:51:02.330Z,44.65
2018-03-30T15:52:02.280Z,44.55
2018-03-30T15:53:55.105Z,44.26
2018-03-30T15:54:55.052Z,45.22
2018-03-30T15:56:48.050Z,45.31
2018-03-30T15:57:48.018Z,45.03
2018-03-30T15:59:41.069Z,45.31
2018-03-30T16:00:40.987Z,45.12
2018-03-30T16:02:35.920Z,45.31
2018-03-30T16:03:34.258Z,45.12
2018-03-30T16:05:27.544Z,45.70
2018-03-30T16:06:27.515Z,45.98
2018-03-30T16:08:20.401Z,46.37
2018-03-30T16:09:20.360Z,46.37
2018-03-30T16:11:13.660Z,46.37
2018-03-30T16:12:13.583Z,46.56
2018-03-30T16:14:06.599Z,46.56
2018-03-30T16:15:06.551Z,46.46
2018-03-30T16:16:59.910Z,46.27
2018-03-30T16:17:59.825Z,46.46
2018-03-30T16:19:53.336Z,46.72
2018-03-30T16:20:53.212Z,47.20
2018-03-30T16:22:46.054Z,47.20
2018-03-30T16:23:45.994Z,47.39
2018-03-30T16:25:38.806Z,47.97
2018-03-30T16:26:38.771Z,48.64
2018-03-30T16:28:31.786Z,48.93
2018-03-30T16:29:31.779Z,48.73
2018-03-30T16:31:24.896Z,49.02
2018-03-30T16:32:24.845Z,49.30
2018-03-30T16:34:17.877Z,49.66
2018-03-30T16:35:17.851Z,48.99
2018-03-30T16:37:11.156Z,49.76
2018-03-30T16:38:11.099Z,49.47
2018-03-30T16:40:04.556Z,50.24
2018-03-30T16:41:04.432Z,49.66
2018-03-30T16:42:57.795Z,49.95
2018-03-30T16:43:57.734Z,50.04
2018-03-30T16:45:50.556Z,49.95
2018-03-30T16:46:50.506Z,50.14
2018-03-30T16:48:43.609Z,50.90
2018-03-30T16:49:43.532Z,51.38
2018-03-30T16:51:36.382Z,51.38
2018-03-30T16:52:36.330Z,51.38
2018-03-30T16:54:30.347Z,51.95
2018-03-30T16:55:30.280Z,51.86
2018-03-30T16:57:23.614Z,51.38
2018-03-30T16:58:23.543Z,51.35
2018-03-30T17:00:16.594Z,51.95
2018-03-30T17:01:16.536Z,51.74
2018-03-30T17:03:09.907Z,52.59
2018-03-30T17:04:09.361Z,52.40
2018-03-30T17:06:02.258Z,52.22
2018-03-30T17:07:02.140Z,52.79
2018-03-30T17:08:55.128Z,53.74
2018-03-30T17:09:55.100Z,53.84
2018-03-30T17:11:47.951Z,53.55
2018-03-30T17:12:47.907Z,53.74
2018-03-30T17:14:42.469Z,53.93
2018-03-30T17:15:41.158Z,54.22
2018-03-30T17:17:34.627Z,54.60
2018-03-30T17:18:33.943Z,55.08
2018-03-30T17:20:28.876Z,54.89
2018-03-30T17:21:26.879Z,55.46
2018-03-30T17:23:19.833Z,55.55
2018-03-30T17:24:19.686Z,56.51
2018-03-30T17:26:12.539Z,57.37
2018-03-30T17:27:12.499Z,57.75
2018-03-30T17:29:05.795Z,58.87
2018-03-30T17:30:05.743Z,59.44
2018-03-30T17:31:58.762Z,61.07
2018-03-30T17:32:58.561Z,61.63
2018-03-30T17:34:51.877Z,63.07
2018-03-30T17:35:51.810Z,63.35
2018-03-30T17:37:45.163Z,63.64
2018-03-30T17:38:45.084Z,63.73
2018-03-30T17:40:38.438Z,63.54
2018-03-30T17:41:38.377Z,63.35
2018-03-30T17:43:31.374Z,64.18
2018-03-30T17:44:31.314Z,64.37
2018-03-30T17:46:24.160Z,64.85
2018-03-30T17:47:24.120Z,64.75
2018-03-30T17:49:17.441Z,64.85
2018-03-30T17:50:17.389Z,65.70
2018-03-30T17:52:11.425Z,66.94
2018-03-30T17:53:11.325Z,67.42
2018-03-30T17:55:04.727Z,67.90
2018-03-30T17:56:04.683Z,68.38
2018-03-30T17:57:57.709Z,68.91
2018-03-30T17:58:57.650Z,68.85
2018-03-30T18:00:51.984Z,68.28
2018-03-30T18:01:51.918Z,69.71
2018-03-30T18:03:45.473Z,70.63
2018-03-30T18:04:45.298Z,70.53
2018-03-30T18:06:38.581Z,72.63
2018-03-30T18:07:38.542Z,74.16
2018-03-30T18:09:35.591Z,75.68
2018-03-30T18:10:33.844Z,75.68
2018-03-30T18:12:28.259Z,77.55
2018-03-30T18:13:28.107Z,78.22
2018-03-30T18:15:21.403Z,77.74
2018-03-30T18:16:21.378Z,78.59
2018-03-30T18:18:14.729Z,79.46
2018-03-30T18:19:14.669Z,78.69
2018-03-30T18:21:08.033Z,80.02
2018-03-30T18:22:07.939Z,80.50
2018-03-30T18:24:01.276Z,80.79
2018-03-30T18:25:01.208Z,81.55
2018-03-30T18:26:54.193Z,81.41
2018-03-30T18:27:54.077Z,82.18
2018-03-30T18:29:48.088Z,81.79
2018-03-30T18:30:48.087Z,82.37
2018-03-30T18:32:41.022Z,82.27
2018-03-30T18:33:41.015Z,82.37
2018-03-30T18:35:34.271Z,81.79